createdAt,value
2018-12-13T00:00:17.643Z,24.20
2018-12-13T00:03:08.572Z,24.20
2018-12-13T00:05:59.262Z,24.20
2018-12-13T00:08:47.500Z,24.20
2018-12-13T00:11:36.413Z,24.20
2018-12-13T00:14:25.885Z,24.20
2018-12-13T00:17:14.200Z,24.20
2018-12-13T00:20:02.462Z,24.20
2018-12-13T00:22:50.440Z,24.20
2018-12-13T00:25:38.479Z,24.20
2018-12-13T00:28:26.469Z,24.20
2018-12-13T00:31:15.765Z,24.20
2018-12-13T00:34:03.958Z,24.10
2018-12-13T00:36:52.596Z,24.10
2018-12-13T00:39:40.536Z,24.20
2018-12-13T00:42:28.989Z,24.20
2018-12-13T00:45:17.573Z,24.10
2018-12-13T00:48:05.542Z,24.10
2018-12-13T00:50:54.092Z,24.10
2018-12-13T00:53:42.727Z,24.20
2018-12-13T00:56:31.491Z,24.20
2018-12-13T00:59:19.220Z,24.10
2018-12-13T01:02:06.747Z,24.10
2018-12-13T01:04:55.048Z,24.10
2018-12-13T01:07:43.100Z,24.10
2018-12-13T01:10:32.177Z,24.10
2018-12-13T01:13:20.087Z,24.10
2018-12-13T01:16:10.613Z,24.10
2018-12-13T01:18:59.210Z,24.10
2018-12-13T01:21:46.912Z,24.10
2018-12-13T01:24:35.106Z,24.10
2018-12-13T01:27:23.044Z,24.10
2018-12-13T01:30:11.018Z,24.10
2018-12-13T01:32:59.126Z,24.10
2018-12-13T01:35:47.130Z,24.10
2018-12-13T01:38:34.889Z,24.10
2018-12-13T01:41:22.552Z,24.10
2018-12-13T01:44:14.879Z,24.10
2018-12-13T01:47:03.155Z,24.10
2018-12-13T01:49:51.822Z,24.10
2018-12-13T01:52:40.303Z,24.10
2018-12-13T01:55:28.726Z,24.10
2018-12-13T01:58:17.895Z,24.10
2018-12-13T02:01:06.762Z,24.10
2018-12-13T02:03:55.371Z,24.10
2018-12-13T02:06:44.690Z,24.10
2018-12-13T02:09:33.275Z,24.10
2018-12-13T02:12:23.173Z,24.10
2018-12-13T02:15:11.554Z,24.10
2018-12-13T02:18:00.183Z,24.10
2018-12-13T02:20:47.262Z,24.10
2018-12-13T02:23:35.857Z,24.10
2018-12-13T02:26:23.609Z,24.10
2018-12-13T02:29:11.750Z,24.10
2018-12-13T02:31:59.101Z,24.10
2018-12-13T02:34:48.495Z,24.10
2018-12-13T02:37:36.528Z,24.10
2018-12-13T02:40:24.370Z,24.10
2018-12-13T02:43:12.413Z,24.10
2018-12-13T02:46:02.131Z,24.10
2018-12-13T02:48:50.597Z,24.10
2018-12-13T02:51:38.654Z,24.10
2018-12-13T02:54:27.943Z,24.10
2018-12-13T02:57:16.100Z,24.10
2018-12-13T03:00:05.249Z,24.10
2018-12-13T03:02:54.986Z,24.10
2018-12-13T03:05:43.592Z,24.10
2018-12-13T03:08:31.420Z,24.10
2018-12-13T03:11:23.506Z,24.10
2018-12-13T03:14:12.394Z,24.10
2018-12-13T03:17:00.906Z,24.10
2018-12-13T03:19:49.795Z,24.10
2018-12-13T03:22:37.843Z,24.10
2018-12-13T03:25:25.879Z,24.10
2018-12-13T03:28:13.614Z,24.10
2018-12-13T03:31:02.236Z,24.10
2018-12-13T03:33:53.313Z,24.10
2018-12-13T03:36:41.812Z,24.10
2018-12-13T03:39:29.881Z,24.10
2018-12-13T03:42:18.532Z,24.10
2018-12-13T03:45:06.572Z,24.10
2018-12-13T03:47:55.785Z,24.00
2018-12-13T03:50:44.426Z,24.10
2018-12-13T03:53:32.400Z,24.10
2018-12-13T03:56:23.730Z,24.10
2018-12-13T03:59:12.416Z,24.10
2018-12-13T04:02:01.831Z,24.10
2018-12-13T04:04:49.870Z,24.10
2018-12-13T04:07:37.841Z,24.10
2018-12-13T04:10:26.888Z,24.10
2018-12-13T04:13:14.590Z,24.10
2018-12-13T04:16:03.126Z,24.10
2018-12-13T04:18:51.480Z,24.10
2018-12-13T04:21:39.845Z,24.10
2018-12-13T04:24:27.659Z,24.10
2018-12-13T04:27:15.604Z,24.10
2018-12-13T04:30:03.259Z,24.10
2018-12-13T04:32:50.844Z,24.10
2018-12-13T04:35:39.034Z,24.10
2018-12-13T04:38:26.558Z,24.10
2018-12-13T04:41:15.143Z,24.00
2018-12-13T04:44:03.497Z,24.10
2018-12-13T04:46:51.398Z,24.10
2018-12-13T04:49:41.411Z,24.10
2018-12-13T04:52:30.226Z,24.10
2018-12-13T05:17:55.666Z,24.10
2018-12-13T05:20:44.981Z,24.10
2018-12-13T05:23:37.214Z,24.10
2018-12-13T05:26:28.147Z,24.10
2018-12-13T05:29:25.228Z,24.10
2018-12-13T05:32:17.499Z,24.10
2018-12-13T05:35:08.171Z,24.10
2018-12-13T05:38:01.513Z,24.10
2018-12-13T05:40:56.375Z,24.10
2018-12-13T05:44:01.849Z,24.10
2018-12-13T05:47:08.331Z,24.10
2018-12-13T05:50:06.512Z,24.10
2018-12-13T05:53:07.764Z,24.10
2018-12-13T05:56:03.914Z,24.10
2018-12-13T06:02:19.443Z,24.10
2018-12-13T06:05:21.562Z,24.10
2018-12-13T06:08:20.598Z,24.10
2018-12-13T06:11:23.423Z,24.10
2018-12-13T06:14:16.619Z,24.10
2018-12-13T06:17:08.171Z,24.10
2018-12-13T06:19:58.392Z,24.10
2018-12-13T06:22:50.087Z,24.10
2018-12-13T06:25:47.827Z,24.10
2018-12-13T06:28:44.444Z,24.10
2018-12-13T06:31:37.020Z,24.10
2018-12-13T06:34:26.580Z,24.10
2018-12-13T06:37:15.583Z,24.10
2018-12-13T06:40:05.025Z,24.10
2018-12-13T06:42:54.072Z,24.10
2018-12-13T06:45:43.676Z,24.10
2018-12-13T06:48:32.391Z,24.20
2018-12-13T06:51:20.981Z,24.20
2018-12-13T06:54:10.576Z,24.20
2018-12-13T06:57:01.875Z,24.20
2018-12-13T06:59:52.350Z,24.20
2018-12-13T07:02:42.634Z,24.20
2018-12-13T07:05:34.996Z,24.20
2018-12-13T07:08:36.131Z,24.20
2018-12-13T07:11:31.400Z,24.20
2018-12-13T07:14:23.541Z,24.20
2018-12-13T07:17:13.145Z,24.20
2018-12-13T07:20:03.253Z,24.20
2018-12-13T07:22:52.724Z,24.20
2018-12-13T07:25:42.563Z,24.20
2018-12-13T07:28:37.161Z,24.20
2018-12-13T07:31:27.242Z,24.20
2018-12-13T07:34:29.532Z,24.20
2018-12-13T07:37:24.030Z,24.20
2018-12-13T07:40:16.385Z,24.20
2018-12-13T07:43:16.068Z,24.20
2018-12-13T07:46:23.838Z,24.20
2018-12-13T07:49:22.282Z,24.20
2018-12-13T07:52:18.542Z,24.20
2018-12-13T07:55:09.568Z,24.20
2018-12-13T07:57:59.030Z,24.20
2018-12-13T08:00:48.790Z,24.20
2018-12-13T08:03:37.385Z,24.20
2018-12-13T08:06:28.688Z,24.20
2018-12-13T08:09:21.204Z,24.20
2018-12-13T08:12:32.478Z,24.20
2018-12-13T08:15:22.799Z,24.20
2018-12-13T08:18:13.031Z,24.30
2018-12-13T08:21:04.898Z,24.30
2018-12-13T08:24:06.123Z,24.30
2018-12-13T08:26:58.944Z,24.30
2018-12-13T08:29:53.003Z,24.20
2018-12-13T08:32:45.059Z,24.30
2018-12-13T08:35:35.981Z,24.30
2018-12-13T08:38:28.887Z,24.30
2018-12-13T08:41:20.657Z,24.30
2018-12-13T08:44:12.447Z,24.20
2018-12-13T08:47:03.777Z,24.30
2018-12-13T08:49:57.913Z,24.30
2018-12-13T08:52:54.965Z,24.30
2018-12-13T08:55:47.988Z,24.30
2018-12-13T08:58:37.727Z,24.30
2018-12-13T09:01:26.001Z,24.30
2018-12-13T09:04:16.089Z,24.30
2018-12-13T09:07:05.199Z,24.30
2018-12-13T09:09:53.240Z,24.30
2018-12-13T09:12:43.349Z,24.30
2018-12-13T09:15:32.082Z,24.30
2018-12-13T09:18:22.267Z,24.20
2018-12-13T09:21:16.488Z,24.30
2018-12-13T09:24:08.247Z,24.30
2018-12-13T09:26:59.621Z,24.30
2018-12-13T09:29:51.856Z,24.30
2018-12-13T09:32:43.529Z,24.30
2018-12-13T09:35:54.632Z,24.20
2018-12-13T09:38:47.978Z,24.30
2018-12-13T09:41:41.077Z,24.20
2018-12-13T09:44:45.622Z,24.20
2018-12-13T09:47:39.495Z,24.30
2018-12-13T09:50:28.374Z,24.30
2018-12-13T09:53:20.442Z,24.20
2018-12-13T09:56:12.370Z,24.20
2018-12-13T09:59:04.524Z,24.30
2018-12-13T10:01:55.599Z,24.20
2018-12-13T10:04:46.238Z,24.30
2018-12-13T10:07:38.639Z,24.30
2018-12-13T10:10:29.191Z,24.20
2018-12-13T10:13:20.112Z,24.30
2018-12-13T10:19:30.901Z,24.20
2018-12-13T10:22:31.295Z,24.30
2018-12-13T10:25:24.742Z,24.30
2018-12-13T10:28:17.231Z,24.30
2018-12-13T10:31:08.531Z,24.30
2018-12-13T10:34:09.580Z,24.30
2018-12-13T10:37:05.416Z,24.30
2018-12-13T10:40:00.221Z,24.30
2018-12-13T10:43:18.998Z,24.30
2018-12-13T10:46:14.826Z,24.30
2018-12-13T10:49:14.288Z,24.30
2018-12-13T10:52:08.896Z,24.30
2018-12-13T10:55:05.621Z,24.30
2018-12-13T10:58:01.191Z,24.30
2018-12-13T11:00:59.816Z,24.20
2018-12-13T11:04:03.644Z,24.30
2018-12-13T11:07:02.412Z,24.30
2018-12-13T11:10:04.639Z,24.30
2018-12-13T11:13:02.470Z,24.20
2018-12-13T11:25:41.649Z,24.30
2018-12-13T11:32:02.363Z,24.30
2018-12-13T11:35:00.707Z,24.30
2018-12-13T11:37:59.597Z,24.30
2018-12-13T11:40:56.467Z,24.30
2018-12-13T11:43:55.785Z,24.30
2018-12-13T11:46:57.950Z,24.30
2018-12-13T11:49:54.735Z,24.30
2018-12-13T11:52:48.045Z,24.30
2018-12-13T11:55:41.498Z,24.30
2018-12-13T11:58:30.184Z,24.30
2018-12-13T12:01:18.152Z,24.20
2018-12-13T12:04:07.696Z,24.30
2018-12-13T12:06:56.147Z,24.30
2018-12-13T12:09:45.636Z,24.30
2018-12-13T12:12:37.528Z,24.20
2018-12-13T12:15:26.763Z,24.30
2018-12-13T12:18:15.562Z,24.30
2018-12-13T12:21:05.881Z,24.30
2018-12-13T12:23:55.394Z,24.30
2018-12-13T12:26:44.446Z,24.30
2018-12-13T12:29:33.902Z,24.20
2018-12-13T12:32:23.621Z,24.30
2018-12-13T12:35:13.710Z,24.30
2018-12-13T12:38:03.335Z,24.30
2018-12-13T12:40:52.798Z,24.30
2018-12-13T12:43:41.401Z,24.30
2018-12-13T12:46:30.710Z,24.30
2018-12-13T12:49:19.574Z,24.30
2018-12-13T12:52:09.237Z,24.30
2018-12-13T12:54:57.359Z,24.30
2018-12-13T12:57:47.961Z,24.20
2018-12-13T13:00:37.979Z,24.30
2018-12-13T13:03:25.949Z,24.20
2018-12-13T13:06:13.720Z,24.30
2018-12-13T13:09:01.929Z,24.30
2018-12-13T13:11:52.770Z,24.30
2018-12-13T13:14:41.768Z,24.30
2018-12-13T13:17:30.174Z,24.30
2018-12-13T13:20:21.334Z,24.30
2018-12-13T13:23:12.659Z,24.20
2018-12-13T13:26:01.109Z,24.20
2018-12-13T13:28:50.694Z,24.30
2018-12-13T13:31:38.660Z,24.30
2018-12-13T13:34:26.568Z,24.30
2018-12-13T13:37:14.263Z,24.30
2018-12-13T13:40:02.555Z,24.20
2018-12-13T13:42:51.498Z,24.20
2018-12-13T13:45:39.214Z,24.20
2018-12-13T13:48:26.914Z,24.20
2018-12-13T13:51:15.457Z,24.20
2018-12-13T13:54:03.773Z,24.20
2018-12-13T13:56:53.489Z,24.20
2018-12-13T13:59:41.729Z,24.20
2018-12-13T14:02:29.791Z,24.20
2018-12-13T14:05:17.849Z,24.20
2018-12-13T14:08:06.221Z,24.20
2018-12-13T14:10:54.205Z,24.20
2018-12-13T14:13:42.651Z,24.20
2018-12-13T14:16:30.330Z,24.20
2018-12-13T14:19:18.493Z,24.20
2018-12-13T14:22:06.393Z,24.20
2018-12-13T14:24:55.630Z,24.20
2018-12-13T14:27:43.762Z,24.20
2018-12-13T14:30:32.057Z,24.20
2018-12-13T14:33:19.815Z,24.20
2018-12-13T14:36:07.642Z,24.20
2018-12-13T14:38:55.888Z,24.20
2018-12-13T14:41:46.184Z,24.20
2018-12-13T14:44:52.523Z,24.20
2018-12-13T14:47:41.383Z,24.20
2018-12-13T14:50:31.218Z,24.20
2018-12-13T14:53:19.660Z,24.20
2018-12-13T14:56:08.721Z,24.20
2018-12-13T14:58:57.912Z,24.20
2018-12-13T15:01:46.363Z,24.20
2018-12-13T15:04:33.991Z,24.20
2018-12-13T15:07:21.981Z,24.20
2018-12-13T15:10:10.513Z,24.10
2018-12-13T15:12:58.694Z,24.10
2018-12-13T15:15:47.197Z,24.10
2018-12-13T15:18:35.125Z,24.10
2018-12-13T15:21:23.233Z,24.10
2018-12-13T15:24:12.069Z,24.10
2018-12-13T15:27:00.145Z,24.10
2018-12-13T15:29:47.856Z,24.10
2018-12-13T15:32:35.938Z,24.10
2018-12-13T15:35:23.882Z,24.10
2018-12-13T15:38:12.410Z,24.10
2018-12-13T15:41:00.745Z,24.10
2018-12-13T15:43:48.872Z,24.10
2018-12-13T15:46:39.264Z,24.10
2018-12-13T15:49:28.218Z,24.10
2018-12-13T15:52:16.456Z,24.10
2018-12-13T15:55:04.504Z,24.20
2018-12-13T15:57:52.247Z,24.10
2018-12-13T16:00:40.459Z,24.20
2018-12-13T16:03:28.616Z,24.10
2018-12-13T16:06:17.811Z,24.10
2018-12-13T16:09:08.160Z,24.10
2018-12-13T16:11:57.016Z,24.10
2018-12-13T16:14:45.456Z,24.10
2018-12-13T16:17:34.626Z,24.10
2018-12-13T16:20:23.300Z,24.10
2018-12-13T16:23:13.149Z,24.10
2018-12-13T16:26:02.668Z,24.10
2018-12-13T16:28:51.765Z,24.10
2018-12-13T16:31:40.810Z,24.10
2018-12-13T16:34:29.403Z,24.10
2018-12-13T16:37:20.516Z,24.10
2018-12-13T16:40:10.465Z,24.10
2018-12-13T16:42:58.826Z,24.00
2018-12-13T16:45:46.663Z,24.00
2018-12-13T16:48:34.943Z,24.00
2018-12-13T16:51:23.843Z,24.00
2018-12-13T16:54:12.299Z,24.00
2018-12-13T16:57:01.184Z,24.00
2018-12-13T16:59:49.382Z,24.00
2018-12-13T17:02:39.971Z,24.00
2018-12-13T17:05:28.160Z,24.00
2018-12-13T17:08:17.782Z,24.00
2018-12-13T17:11:05.990Z,24.00
2018-12-13T17:13:53.868Z,24.10
2018-12-13T17:16:41.953Z,24.10
2018-12-13T17:19:35.795Z,24.10
2018-12-13T17:22:23.828Z,24.10
2018-12-13T17:25:12.215Z,24.10
2018-12-13T17:28:00.595Z,24.00
2018-12-13T17:30:49.032Z,24.00
2018-12-13T17:33:39.486Z,24.00
2018-12-13T17:36:27.255Z,24.00
2018-12-13T17:39:14.870Z,24.00
2018-12-13T17:42:04.250Z,24.00
2018-12-13T17:44:52.591Z,24.00
2018-12-13T17:47:41.240Z,23.90
2018-12-13T17:50:28.979Z,23.90
2018-12-13T17:53:19.067Z,23.90
2018-12-13T17:56:07.531Z,23.90
2018-12-13T17:58:55.932Z,23.90
2018-12-13T18:01:43.747Z,23.90
2018-12-13T18:04:31.939Z,23.90
2018-12-13T18:07:20.072Z,23.90
2018-12-13T18:10:08.598Z,23.90
2018-12-13T18:12:57.153Z,23.90
2018-12-13T18:15:44.919Z,23.90
2018-12-13T18:18:32.794Z,23.90
2018-12-13T18:21:22.056Z,23.80
2018-12-13T18:24:10.994Z,23.90
2018-12-13T18:26:59.570Z,23.90
2018-12-13T18:29:47.545Z,23.90
2018-12-13T18:32:36.976Z,23.90
2018-12-13T18:35:25.235Z,23.90
2018-12-13T18:38:13.977Z,23.90
2018-12-13T18:41:01.872Z,23.90
2018-12-13T18:43:50.847Z,23.90
2018-12-13T18:46:39.542Z,23.90
2018-12-13T18:49:27.696Z,23.90
2018-12-13T18:52:18.691Z,23.90
2018-12-13T18:55:07.272Z,23.90
2018-12-13T18:57:55.305Z,23.90
2018-12-13T19:00:42.897Z,23.90
2018-12-13T19:03:31.077Z,23.90
2018-12-13T19:06:19.262Z,23.90
2018-12-13T19:09:08.318Z,23.80
2018-12-13T19:11:58.739Z,23.80
2018-12-13T19:14:46.572Z,23.80
2018-12-13T19:17:34.799Z,23.80
2018-12-13T19:20:22.360Z,23.80
2018-12-13T19:23:11.047Z,23.80
2018-12-13T19:26:00.621Z,23.80
2018-12-13T19:28:49.467Z,23.70
2018-12-13T19:31:38.285Z,23.80
2018-12-13T19:34:27.539Z,23.70
2018-12-13T19:37:15.532Z,23.70
2018-12-13T19:40:04.130Z,23.70
2018-12-13T19:42:52.255Z,23.70
2018-12-13T19:45:42.177Z,23.70
2018-12-13T19:48:30.517Z,23.70
2018-12-13T19:51:18.530Z,23.80
2018-12-13T19:54:06.716Z,23.80
2018-12-13T19:56:55.148Z,23.80
2018-12-13T19:59:43.265Z,23.80
2018-12-13T20:02:33.511Z,23.80
2018-12-13T20:05:22.459Z,23.70
2018-12-13T20:08:11.082Z,23.70
2018-12-13T20:10:58.969Z,23.70
2018-12-13T20:13:46.804Z,23.70
2018-12-13T20:16:34.943Z,23.70
2018-12-13T20:19:23.517Z,23.60
2018-12-13T20:22:11.658Z,23.60
2018-12-13T20:25:02.259Z,23.60
2018-12-13T20:27:50.699Z,23.60
2018-12-13T20:30:38.697Z,23.60
2018-12-13T20:33:26.765Z,23.60
2018-12-13T20:36:15.576Z,23.60
2018-12-13T20:39:03.203Z,23.60
2018-12-13T20:41:51.527Z,23.60
2018-12-13T20:44:39.068Z,23.60
2018-12-13T20:47:28.169Z,23.60
2018-12-13T20:50:16.549Z,23.60
2018-12-13T20:53:04.377Z,23.60
2018-12-13T20:55:52.356Z,23.60
2018-12-13T20:58:40.299Z,23.60
2018-12-13T21:01:28.103Z,23.60
2018-12-13T21:04:16.048Z,23.60
2018-12-13T21:07:07.793Z,23.60
2018-12-13T21:09:56.190Z,23.70
2018-12-13T21:12:44.791Z,23.70
2018-12-13T21:15:33.022Z,23.70
2018-12-13T21:18:21.713Z,23.70
2018-12-13T21:21:09.565Z,23.70
2018-12-13T21:23:57.798Z,23.70
2018-12-13T21:26:47.619Z,23.70
2018-12-13T21:29:35.733Z,23.70
2018-12-13T21:32:23.898Z,23.70
2018-12-13T21:35:12.766Z,23.70
2018-12-13T21:38:00.572Z,23.60
2018-12-13T21:40:48.668Z,23.60
2018-12-13T21:43:36.472Z,23.60
2018-12-13T21:46:25.436Z,23.60
2018-12-13T21:49:13.500Z,23.60
2018-12-13T21:52:01.701Z,23.60
2018-12-13T21:54:50.044Z,23.60
2018-12-13T21:57:38.107Z,23.60
2018-12-13T22:00:25.893Z,23.60
2018-12-13T22:03:13.275Z,23.60
2018-12-13T22:06:01.698Z,23.60
2018-12-13T22:08:49.550Z,23.60
2018-12-13T22:11:37.421Z,23.50
2018-12-13T22:14:25.236Z,23.50
2018-12-13T22:17:12.880Z,23.50
2018-12-13T22:20:00.757Z,23.50
2018-12-13T22:22:48.942Z,23.50
2018-12-13T22:25:36.656Z,23.50
2018-12-13T22:28:25.647Z,23.50
2018-12-13T22:31:13.749Z,23.60
2018-12-13T22:34:01.443Z,23.60
2018-12-13T22:36:49.362Z,23.60
2018-12-13T22:39:37.695Z,23.60
2018-12-13T22:42:26.237Z,23.50
2018-12-13T22:45:14.104Z,23.50
2018-12-13T22:48:02.592Z,23.50
2018-12-13T22:50:50.892Z,23.50
2018-12-13T22:53:38.778Z,23.50
2018-12-13T22:56:26.694Z,23.40
2018-12-13T22:59:15.942Z,23.40
2018-12-13T23:02:04.740Z,23.40
2018-12-13T23:04:54.458Z,23.40
2018-12-13T23:07:43.440Z,23.40
2018-12-13T23:10:32.708Z,23.40
2018-12-13T23:13:20.499Z,23.40
2018-12-13T23:16:09.199Z,23.40
2018-12-13T23:18:57.398Z,23.40
2018-12-13T23:21:45.632Z,23.40
2018-12-13T23:24:33.729Z,23.40
2018-12-13T23:27:22.619Z,23.40
2018-12-13T23:30:11.143Z,23.40
2018-12-13T23:32:59.389Z,23.40
2018-12-13T23:35:48.771Z,23.40
2018-12-13T23:38:36.443Z,23.30
2018-12-13T23:41:24.914Z,23.40
2018-12-13T23:44:12.666Z,23.40
2018-12-13T23:47:00.831Z,23.40
2018-12-13T23:49:48.505Z,23.40
2018-12-13T23:52:36.530Z,23.40
2018-12-13T23:55:24.335Z,23.40
2018-12-13T23:58:11.955Z,23.40
